sensor_id;sensor_type;location;lat;lon;timestamp;temperature;humidity
10417;DHT22;62605;49.432;8.680;2023-06-10T00:00:44;22.70;1.00
10417;DHT22;62605;49.432;8.680;2023-06-10T00:03:11;22.60;1.00
10417;DHT22;62605;49.432;8.680;2023-06-10T00:05:40;22.60;1.00
10417;DHT22;62605;49.432;8.680;2023-06-10T00:08:07;22.60;1.00
10417;DHT22;62605;49.432;8.680;2023-06-10T00:10:34;22.60;1.00
10417;DHT22;62605;49.432;8.680;2023-06-10T00:13:02;22.60;1.00
10417;DHT22;62605;49.432;8.680;2023-06-10T00:15:31;22.50;1.00
10417;DHT22;62605;49.432;8.680;2023-06-10T00:17:58;22.70;1.00
10417;DHT22;62605;49.432;8.680;2023-06-10T00:20:30;22.70;1.00
10417;DHT22;62605;49.432;8.680;2023-06-10T00:22:58;22.70;1.00
10417;DHT22;62605;49.432;8.680;2023-06-10T00:25:27;22.70;1.00
10417;DHT22;62605;49.432;8.680;2023-06-10T00:27:54;22.70;1.00
10417;DHT22;62605;49.432;8.680;2023-06-10T00:30:21;22.60;1.00
10417;DHT22;62605;49.432;8.680;2023-06-10T00:33:23;22.70;1.00
10417;DHT22;62605;49.432;8.680;2023-06-10T00:36:06;22.60;1.00
10417;DHT22;62605;49.432;8.680;2023-06-10T00:38:38;22.50;1.00
10417;DHT22;62605;49.432;8.680;2023-06-10T00:41:08;22.50;1.00
10417;DHT22;62605;49.432;8.680;2023-06-10T00:43:38;22.40;1.00
10417;DHT22;62605;49.432;8.680;2023-06-10T00:46:06;22.40;1.00
10417;DHT22;62605;49.432;8.680;2023-06-10T00:48:37;22.40;1.00
10417;DHT22;62605;49.432;8.680;2023-06-10T00:51:15;22.50;1.00
10417;DHT22;62605;49.432;8.680;2023-06-10T00:53:44;22.50;1.00
10417;DHT22;62605;49.432;8.680;2023-06-10T00:56:12;22.50;1.00
10417;DHT22;62605;49.432;8.680;2023-06-10T00:58:41;22.50;1.00
10417;DHT22;62605;49.432;8.680;2023-06-10T01:01:24;22.50;1.00
10417;DHT22;62605;49.432;8.680;2023-06-10T01:03:53;22.50;1.00
10417;DHT22;62605;49.432;8.680;2023-06-10T01:06:32;22.50;1.00
10417;DHT22;62605;49.432;8.680;2023-06-10T01:09:18;22.40;1.00
10417;DHT22;62605;49.432;8.680;2023-06-10T01:11:54;22.50;1.00
10417;DHT22;62605;49.432;8.680;2023-06-10T01:14:24;22.50;1.00
10417;DHT22;62605;49.432;8.680;2023-06-10T01:16:53;22.50;1.00
10417;DHT22;62605;49.432;8.680;2023-06-10T01:19:22;22.50;1.00
10417;DHT22;62605;49.432;8.680;2023-06-10T01:21:52;22.50;1.00
10417;DHT22;62605;49.432;8.680;2023-06-10T01:24:21;22.50;1.00
10417;DHT22;62605;49.432;8.680;2023-06-10T01:26:51;22.60;1.00
10417;DHT22;62605;49.432;8.680;2023-06-10T01:29:24;22.50;1.00
10417;DHT22;62605;49.432;8.680;2023-06-10T01:32:00;22.40;1.00
10417;DHT22;62605;49.432;8.680;2023-06-10T01:34:30;22.40;1.00
10417;DHT22;62605;49.432;8.680;2023-06-10T01:37:00;22.30;1.00
10417;DHT22;62605;49.432;8.680;2023-06-10T01:39:28;22.20;1.00
10417;DHT22;62605;49.432;8.680;2023-06-10T01:41:59;22.20;1.00
10417;DHT22;62605;49.432;8.680;2023-06-10T01:44:28;22.20;1.00
10417;DHT22;62605;49.432;8.680;2023-06-10T01:46:55;21.70;1.00
10417;DHT22;62605;49.432;8.680;2023-06-10T01:49:25;21.00;1.00
10417;DHT22;62605;49.432;8.680;2023-06-10T01:51:54;20.60;1.00
10417;DHT22;62605;49.432;8.680;2023-06-10T01:54:24;20.50;1.00
10417;DHT22;62605;49.432;8.680;2023-06-10T01:56:53;20.30;1.00
10417;DHT22;62605;49.432;8.680;2023-06-10T01:59:21;20.20;1.00
10417;DHT22;62605;49.432;8.680;2023-06-10T02:01:49;20.10;1.00
10417;DHT22;62605;49.432;8.680;2023-06-10T02:04:17;19.90;1.00
10417;DHT22;62605;49.432;8.680;2023-06-10T02:06:44;19.80;1.00
10417;DHT22;62605;49.432;8.680;2023-06-10T02:09:12;19.70;1.00
10417;DHT22;62605;49.432;8.680;2023-06-10T02:11:41;19.60;1.00
10417;DHT22;62605;49.432;8.680;2023-06-10T02:14:08;19.60;1.00
10417;DHT22;62605;49.432;8.680;2023-06-10T02:16:36;19.70;1.00
10417;DHT22;62605;49.432;8.680;2023-06-10T02:19:03;19.60;1.00
10417;DHT22;62605;49.432;8.680;2023-06-10T02:21:33;19.60;1.00
10417;DHT22;62605;49.432;8.680;2023-06-10T02:24:01;19.50;1.00
10417;DHT22;62605;49.432;8.680;2023-06-10T02:26:29;19.40;1.00
10417;DHT22;62605;49.432;8.680;2023-06-10T02:28:59;19.40;1.00
10417;DHT22;62605;49.432;8.680;2023-06-10T02:31:27;19.40;1.00
10417;DHT22;62605;49.432;8.680;2023-06-10T02:33:54;19.30;1.00
10417;DHT22;62605;49.432;8.680;2023-06-10T02:36:22;19.20;1.00
10417;DHT22;62605;49.432;8.680;2023-06-10T02:38:49;19.20;1.00
10417;DHT22;62605;49.432;8.680;2023-06-10T02:41:17;19.30;1.00
10417;DHT22;62605;49.432;8.680;2023-06-10T02:43:44;19.20;1.00
10417;DHT22;62605;49.432;8.680;2023-06-10T02:46:13;19.10;1.00
10417;DHT22;62605;49.432;8.680;2023-06-10T02:48:41;19.10;1.00
10417;DHT22;62605;49.432;8.680;2023-06-10T02:51:10;19.10;1.00
10417;DHT22;62605;49.432;8.680;2023-06-10T02:53:37;19.00;1.00
10417;DHT22;62605;49.432;8.680;2023-06-10T02:56:05;18.90;1.00
10417;DHT22;62605;49.432;8.680;2023-06-10T02:58:32;18.80;1.00
10417;DHT22;62605;49.432;8.680;2023-06-10T03:00:59;18.80;1.00
10417;DHT22;62605;49.432;8.680;2023-06-10T03:03:28;18.70;1.00
10417;DHT22;62605;49.432;8.680;2023-06-10T03:05:56;18.70;1.00
10417;DHT22;62605;49.432;8.680;2023-06-10T03:08:24;18.60;1.00
10417;DHT22;62605;49.432;8.680;2023-06-10T03:10:52;18.60;1.00
10417;DHT22;62605;49.432;8.680;2023-06-10T03:13:19;18.60;1.00
10417;DHT22;62605;49.432;8.680;2023-06-10T03:15:46;18.60;1.00
10417;DHT22;62605;49.432;8.680;2023-06-10T03:18:14;18.60;1.00
10417;DHT22;62605;49.432;8.680;2023-06-10T03:20:43;18.60;1.00
10417;DHT22;62605;49.432;8.680;2023-06-10T03:23:11;18.50;1.00
10417;DHT22;62605;49.432;8.680;2023-06-10T03:25:38;18.50;1.00
10417;DHT22;62605;49.432;8.680;2023-06-10T03:28:07;18.40;1.00
10417;DHT22;62605;49.432;8.680;2023-06-10T03:30:35;18.40;1.00
10417;DHT22;62605;49.432;8.680;2023-06-10T03:33:03;18.30;1.00
10417;DHT22;62605;49.432;8.680;2023-06-10T03:35:30;18.20;1.00
10417;DHT22;62605;49.432;8.680;2023-06-10T03:37:59;18.20;1.00
10417;DHT22;62605;49.432;8.680;2023-06-10T03:40:26;18.10;1.00
10417;DHT22;62605;49.432;8.680;2023-06-10T03:42:56;18.20;1.00
10417;DHT22;62605;49.432;8.680;2023-06-10T03:45:23;18.30;1.00
10417;DHT22;62605;49.432;8.680;2023-06-10T03:47:54;18.30;1.00
10417;DHT22;62605;49.432;8.680;2023-06-10T03:50:21;18.30;1.00
10417;DHT22;62605;49.432;8.680;2023-06-10T03:52:50;18.40;1.00
10417;DHT22;62605;49.432;8.680;2023-06-10T03:55:19;18.40;1.00
10417;DHT22;62605;49.432;8.680;2023-06-10T03:57:47;18.40;1.00
10417;DHT22;62605;49.432;8.680;2023-06-10T04:00:18;18.40;1.00
10417;DHT22;62605;49.432;8.680;2023-06-10T04:02:47;18.40;1.00
10417;DHT22;62605;49.432;8.680;2023-06-10T04:05:18;18.30;1.00
10417;DHT22;62605;49.432;8.680;2023-06-10T04:07:47;18.30;1.00
10417;DHT22;62605;49.432;8.680;2023-06-10T04:10:15;18.30;1.00
10417;DHT22;62605;49.432;8.680;2023-06-10T04:12:44;18.30;1.00
10417;DHT22;62605;49.432;8.680;2023-06-10T04:15:11;18.10;1.00
10417;DHT22;62605;49.432;8.680;2023-06-10T04:17:39;18.10;1.00
10417;DHT22;62605;49.432;8.680;2023-06-10T04:20:07;18.00;1.00
10417;DHT22;62605;49.432;8.680;2023-06-10T04:22:35;18.00;14.60
10417;DHT22;62605;49.432;8.680;2023-06-10T04:25:04;17.90;37.80
10417;DHT22;62605;49.432;8.680;2023-06-10T04:27:33;17.90;24.20
10417;DHT22;62605;49.432;8.680;2023-06-10T04:30:03;17.90;56.50
10417;DHT22;62605;49.432;8.680;2023-06-10T04:32:31;17.90;57.40
10417;DHT22;62605;49.432;8.680;2023-06-10T04:35:00;18.00;33.70
10417;DHT22;62605;49.432;8.680;2023-06-10T04:37:29;18.00;58.80
10417;DHT22;62605;49.432;8.680;2023-06-10T04:39:57;18.00;71.30
10417;DHT22;62605;49.432;8.680;2023-06-10T04:42:26;18.10;97.00
10417;DHT22;62605;49.432;8.680;2023-06-10T04:44:56;18.00;99.90
10417;DHT22;62605;49.432;8.680;2023-06-10T04:47:29;18.00;99.90
10417;DHT22;62605;49.432;8.680;2023-06-10T04:49:59;18.00;99.90
10417;DHT22;62605;49.432;8.680;2023-06-10T04:52:31;18.20;99.90
10417;DHT22;62605;49.432;8.680;2023-06-10T04:55:00;18.20;99.90
10417;DHT22;62605;49.432;8.680;2023-06-10T04:57:30;18.30;99.90
10417;DHT22;62605;49.432;8.680;2023-06-10T04:59:57;18.40;99.90
10417;DHT22;62605;49.432;8.680;2023-06-10T05:02:24;18.40;99.90
10417;DHT22;62605;49.432;8.680;2023-06-10T05:04:53;18.50;99.90
10417;DHT22;62605;49.432;8.680;2023-06-10T05:07:23;18.50;99.90
10417;DHT22;62605;49.432;8.680;2023-06-10T05:09:53;18.60;99.90
10417;DHT22;62605;49.432;8.680;2023-06-10T05:12:20;18.70;98.50
10417;DHT22;62605;49.432;8.680;2023-06-10T05:14:50;18.80;99.90
10417;DHT22;62605;49.432;8.680;2023-06-10T05:17:21;18.90;99.90
10417;DHT22;62605;49.432;8.680;2023-06-10T05:19:49;18.90;99.90
10417;DHT22;62605;49.432;8.680;2023-06-10T05:22:20;19.00;99.90
10417;DHT22;62605;49.432;8.680;2023-06-10T05:24:52;19.10;99.80
10417;DHT22;62605;49.432;8.680;2023-06-10T05:27:23;19.30;83.90
10417;DHT22;62605;49.432;8.680;2023-06-10T05:29:51;19.30;62.10
10417;DHT22;62605;49.432;8.680;2023-06-10T05:32:18;19.40;46.30
10417;DHT22;62605;49.432;8.680;2023-06-10T05:34:45;19.40;73.20
10417;DHT22;62605;49.432;8.680;2023-06-10T05:37:13;19.50;28.50
10417;DHT22;62605;49.432;8.680;2023-06-10T05:39:43;19.60;31.60
10417;DHT22;62605;49.432;8.680;2023-06-10T05:42:10;19.60;28.70
10417;DHT22;62605;49.432;8.680;2023-06-10T05:44:38;19.80;11.00
10417;DHT22;62605;49.432;8.680;2023-06-10T05:47:06;19.70;28.10
10417;DHT22;62605;49.432;8.680;2023-06-10T05:49:34;19.90;15.70
10417;DHT22;62605;49.432;8.680;2023-06-10T05:52:06;19.80;10.50
10417;DHT22;62605;49.432;8.680;2023-06-10T05:54:33;20.00;4.60
10417;DHT22;62605;49.432;8.680;2023-06-10T05:57:03;20.00;8.40
10417;DHT22;62605;49.432;8.680;2023-06-10T05:59:32;20.10;14.20
10417;DHT22;62605;49.432;8.680;2023-06-10T06:02:04;20.20;4.10
10417;DHT22;62605;49.432;8.680;2023-06-10T06:04:32;20.30;2.70
10417;DHT22;62605;49.432;8.680;2023-06-10T06:06:59;20.30;1.00
10417;DHT22;62605;49.432;8.680;2023-06-10T06:09:26;20.30;1.00
10417;DHT22;62605;49.432;8.680;2023-06-10T06:11:53;20.40;5.50
10417;DHT22;62605;49.432;8.680;2023-06-10T06:14:21;20.50;1.00
10417;DHT22;62605;49.432;8.680;2023-06-10T06:16:48;20.60;1.00
10417;DHT22;62605;49.432;8.680;2023-06-10T06:19:15;20.60;1.00
10417;DHT22;62605;49.432;8.680;2023-06-10T06:21:42;20.70;1.00
10417;DHT22;62605;49.432;8.680;2023-06-10T06:24:10;20.80;1.00
10417;DHT22;62605;49.432;8.680;2023-06-10T06:26:37;20.90;1.00
10417;DHT22;62605;49.432;8.680;2023-06-10T06:29:04;20.90;1.00
10417;DHT22;62605;49.432;8.680;2023-06-10T06:31:32;21.00;1.00
10417;DHT22;62605;49.432;8.680;2023-06-10T06:34:00;21.10;1.00
10417;DHT22;62605;49.432;8.680;2023-06-10T06:36:27;21.30;1.00
10417;DHT22;62605;49.432;8.680;2023-06-10T06:38:56;21.30;1.00
10417;DHT22;62605;49.432;8.680;2023-06-10T06:41:24;21.30;1.00
10417;DHT22;62605;49.432;8.680;2023-06-10T06:43:55;21.40;1.00
10417;DHT22;62605;49.432;8.680;2023-06-10T06:46:25;21.50;1.00
10417;DHT22;62605;49.432;8.680;2023-06-10T06:48:56;21.60;1.00
10417;DHT22;62605;49.432;8.680;2023-06-10T06:51:31;21.70;1.00
10417;DHT22;62605;49.432;8.680;2023-06-10T06:54:02;21.80;1.00
10417;DHT22;62605;49.432;8.680;2023-06-10T06:56:31;21.90;1.00
10417;DHT22;62605;49.432;8.680;2023-06-10T06:58:59;22.20;1.00
10417;DHT22;62605;49.432;8.680;2023-06-10T07:01:27;22.30;1.00
10417;DHT22;62605;49.432;8.680;2023-06-10T07:03:55;22.40;1.00
10417;DHT22;62605;49.432;8.680;2023-06-10T07:06:22;22.60;1.00
10417;DHT22;62605;49.432;8.680;2023-06-10T07:08:50;22.70;1.00
10417;DHT22;62605;49.432;8.680;2023-06-10T07:11:17;22.90;1.00
10417;DHT22;62605;49.432;8.680;2023-06-10T07:13:44;23.00;1.00
10417;DHT22;62605;49.432;8.680;2023-06-10T07:16:12;23.20;1.00
10417;DHT22;62605;49.432;8.680;2023-06-10T07:18:39;23.20;1.00
10417;DHT22;62605;49.432;8.680;2023-06-10T07:21:08;23.20;1.00
10417;DHT22;62605;49.432;8.680;2023-06-10T07:23:35;23.50;1.00
10417;DHT22;62605;49.432;8.680;2023-06-10T07:26:02;23.50;1.00
10417;DHT22;62605;49.432;8.680;2023-06-10T07:28:29;23.50;1.00
10417;DHT22;62605;49.432;8.680;2023-06-10T07:30:56;23.60;1.00
10417;DHT22;62605;49.432;8.680;2023-06-10T07:33:24;23.70;1.00
10417;DHT22;62605;49.432;8.680;2023-06-10T07:35:51;23.80;1.00
10417;DHT22;62605;49.432;8.680;2023-06-10T07:38:19;24.00;1.00
10417;DHT22;62605;49.432;8.680;2023-06-10T07:40:47;24.10;1.00
10417;DHT22;62605;49.432;8.680;2023-06-10T07:43:14;24.10;1.00
10417;DHT22;62605;49.432;8.680;2023-06-10T07:45:41;24.20;1.00
10417;DHT22;62605;49.432;8.680;2023-06-10T07:48:08;24.40;1.00
10417;DHT22;62605;49.432;8.680;2023-06-10T07:50:36;24.50;1.00
10417;DHT22;62605;49.432;8.680;2023-06-10T07:53:03;24.20;1.00
10417;DHT22;62605;49.432;8.680;2023-06-10T07:55:31;24.30;1.00
10417;DHT22;62605;49.432;8.680;2023-06-10T07:57:58;24.40;1.00
10417;DHT22;62605;49.432;8.680;2023-06-10T08:00:25;24.60;1.00
10417;DHT22;62605;49.432;8.680;2023-06-10T08:02:59;24.60;1.00
10417;DHT22;62605;49.432;8.680;2023-06-10T08:05:29;24.50;1.00
10417;DHT22;62605;49.432;8.680;2023-06-10T08:07:58;24.70;1.00
10417;DHT22;62605;49.432;8.680;2023-06-10T08:10:25;24.70;1.00
10417;DHT22;62605;49.432;8.680;2023-06-10T08:12:53;24.70;1.00
10417;DHT22;62605;49.432;8.680;2023-06-10T08:15:21;24.80;1.00
10417;DHT22;62605;49.432;8.680;2023-06-10T08:17:48;24.90;1.00
10417;DHT22;62605;49.432;8.680;2023-06-10T08:20:15;25.10;1.00
10417;DHT22;62605;49.432;8.680;2023-06-10T08:22:42;25.20;1.00
10417;DHT22;62605;49.432;8.680;2023-06-10T08:25:10;25.20;1.00
10417;DHT22;62605;49.432;8.680;2023-06-10T08:27:37;25.30;1.00
10417;DHT22;62605;49.432;8.680;2023-06-10T08:30:09;25.60;1.00
10417;DHT22;62605;49.432;8.680;2023-06-10T08:32:36;25.70;1.00
10417;DHT22;62605;49.432;8.680;2023-06-10T08:35:04;25.50;1.00
10417;DHT22;62605;49.432;8.680;2023-06-10T08:37:31;25.50;1.00
10417;DHT22;62605;49.432;8.680;2023-06-10T08:39:58;25.60;1.00
10417;DHT22;62605;49.432;8.680;2023-06-10T08:42:32;26.00;1.00
10417;DHT22;62605;49.432;8.680;2023-06-10T08:45:01;26.10;1.00
10417;DHT22;62605;49.432;8.680;2023-06-10T08:47:30;26.00;1.00
10417;DHT22;62605;49.432;8.680;2023-06-10T08:50:06;25.90;1.00
10417;DHT22;62605;49.432;8.680;2023-06-10T08:52:36;26.20;1.00
10417;DHT22;62605;49.432;8.680;2023-06-10T08:55:08;26.10;1.00
10417;DHT22;62605;49.432;8.680;2023-06-10T08:57:37;26.20;1.00
10417;DHT22;62605;49.432;8.680;2023-06-10T09:00:06;26.30;1.00
10417;DHT22;62605;49.432;8.680;2023-06-10T09:02:36;26.60;1.00
10417;DHT22;62605;49.432;8.680;2023-06-10T09:05:04;26.80;1.00
10417;DHT22;62605;49.432;8.680;2023-06-10T09:07:31;26.90;1.00
10417;DHT22;62605;49.432;8.680;2023-06-10T09:10:01;27.20;1.00
10417;DHT22;62605;49.432;8.680;2023-06-10T09:12:32;26.90;1.00
10417;DHT22;62605;49.432;8.680;2023-06-10T09:14:59;26.80;1.00
10417;DHT22;62605;49.432;8.680;2023-06-10T09:17:27;27.10;1.00
10417;DHT22;62605;49.432;8.680;2023-06-10T09:19:56;27.50;1.00
10417;DHT22;62605;49.432;8.680;2023-06-10T09:22:23;27.50;1.00
10417;DHT22;62605;49.432;8.680;2023-06-10T09:24:52;27.20;1.00
10417;DHT22;62605;49.432;8.680;2023-06-10T09:27:30;27.50;1.00
10417;DHT22;62605;49.432;8.680;2023-06-10T09:29:57;27.30;1.00
10417;DHT22;62605;49.432;8.680;2023-06-10T09:32:25;27.50;1.00
10417;DHT22;62605;49.432;8.680;2023-06-10T09:34:52;27.50;1.00
10417;DHT22;62605;49.432;8.680;2023-06-10T09:37:24;27.40;1.00
10417;DHT22;62605;49.432;8.680;2023-06-10T09:40:04;27.40;1.00
10417;DHT22;62605;49.432;8.680;2023-06-10T09:42:37;27.70;1.00
10417;DHT22;62605;49.432;8.680;2023-06-10T09:45:05;27.50;1.00
10417;DHT22;62605;49.432;8.680;2023-06-10T09:47:33;27.80;1.00
10417;DHT22;62605;49.432;8.680;2023-06-10T09:50:00;28.00;1.00
10417;DHT22;62605;49.432;8.680;2023-06-10T09:52:29;27.80;1.00
10417;DHT22;62605;49.432;8.680;2023-06-10T09:55:00;27.40;1.00
10417;DHT22;62605;49.432;8.680;2023-06-10T09:57:31;27.20;1.00
10417;DHT22;62605;49.432;8.680;2023-06-10T09:59:59;27.70;1.00
10417;DHT22;62605;49.432;8.680;2023-06-10T10:02:26;27.70;1.00
10417;DHT22;62605;49.432;8.680;2023-06-10T10:04:53;27.90;1.00
10417;DHT22;62605;49.432;8.680;2023-06-10T10:07:30;27.60;1.00
10417;DHT22;62605;49.432;8.680;2023-06-10T10:09:57;27.90;1.00
10417;DHT22;62605;49.432;8.680;2023-06-10T10:12:25;28.00;1.00
10417;DHT22;62605;49.432;8.680;2023-06-10T10:14:54;27.30;1.00
10417;DHT22;62605;49.432;8.680;2023-06-10T10:17:23;27.50;1.00
10417;DHT22;62605;49.432;8.680;2023-06-10T10:19:53;27.80;1.00
10417;DHT22;62605;49.432;8.680;2023-06-10T10:22:26;27.90;1.00
10417;DHT22;62605;49.432;8.680;2023-06-10T10:24:56;28.20;1.00
10417;DHT22;62605;49.432;8.680;2023-06-10T10:27:27;28.20;1.00
10417;DHT22;62605;49.432;8.680;2023-06-10T10:29:55;28.40;1.00
10417;DHT22;62605;49.432;8.680;2023-06-10T10:32:32;28.70;1.00
10417;DHT22;62605;49.432;8.680;2023-06-10T10:35:07;28.70;1.00
10417;DHT22;62605;49.432;8.680;2023-06-10T10:37:35;29.30;1.00
10417;DHT22;62605;49.432;8.680;2023-06-10T10:40:04;28.90;1.00
10417;DHT22;62605;49.432;8.680;2023-06-10T10:42:33;28.70;1.00
10417;DHT22;62605;49.432;8.680;2023-06-10T10:45:01;29.30;1.00
10417;DHT22;62605;49.432;8.680;2023-06-10T10:47:31;28.90;1.00
10417;DHT22;62605;49.432;8.680;2023-06-10T10:50:01;28.80;1.00
10417;DHT22;62605;49.432;8.680;2023-06-10T10:52:48;29.10;1.00
10417;DHT22;62605;49.432;8.680;2023-06-10T10:55:19;29.30;1.00
10417;DHT22;62605;49.432;8.680;2023-06-10T10:57:53;29.30;1.00
10417;DHT22;62605;49.432;8.680;2023-06-10T11:00:28;29.20;1.00
10417;DHT22;62605;49.432;8.680;2023-06-10T11:03:04;29.10;1.00
10417;DHT22;62605;49.432;8.680;2023-06-10T11:05:36;29.00;1.00
10417;DHT22;62605;49.432;8.680;2023-06-10T11:08:04;28.20;1.00
10417;DHT22;62605;49.432;8.680;2023-06-10T11:10:34;28.80;1.00
10417;DHT22;62605;49.432;8.680;2023-06-10T11:13:06;29.10;1.00
10417;DHT22;62605;49.432;8.680;2023-06-10T11:15:38;28.60;1.00
10417;DHT22;62605;49.432;8.680;2023-06-10T11:18:20;28.30;1.00
10417;DHT22;62605;49.432;8.680;2023-06-10T11:20:59;28.60;1.00
10417;DHT22;62605;49.432;8.680;2023-06-10T11:23:42;28.60;1.00
10417;DHT22;62605;49.432;8.680;2023-06-10T11:26:29;29.30;1.00
10417;DHT22;62605;49.432;8.680;2023-06-10T11:29:04;29.50;1.00
10417;DHT22;62605;49.432;8.680;2023-06-10T11:31:35;29.50;1.00
10417;DHT22;62605;49.432;8.680;2023-06-10T11:34:06;29.30;1.00
10417;DHT22;62605;49.432;8.680;2023-06-10T11:36:38;29.50;1.00
10417;DHT22;62605;49.432;8.680;2023-06-10T11:39:17;28.90;1.00
10417;DHT22;62605;49.432;8.680;2023-06-10T11:41:49;28.80;1.00
10417;DHT22;62605;49.432;8.680;2023-06-10T11:44:17;29.40;1.00
10417;DHT22;62605;49.432;8.680;2023-06-10T11:46:45;29.30;1.00
10417;DHT22;62605;49.432;8.680;2023-06-10T11:49:12;28.90;1.00
10417;DHT22;62605;49.432;8.680;2023-06-10T11:51:40;28.50;1.00
10417;DHT22;62605;49.432;8.680;2023-06-10T11:54:14;28.50;1.00
10417;DHT22;62605;49.432;8.680;2023-06-10T11:56:43;28.40;1.00
10417;DHT22;62605;49.432;8.680;2023-06-10T11:59:11;28.90;1.00
10417;DHT22;62605;49.432;8.680;2023-06-10T12:01:42;29.40;1.00
10417;DHT22;62605;49.432;8.680;2023-06-10T12:04:10;29.30;1.00
10417;DHT22;62605;49.432;8.680;2023-06-10T12:06:39;28.40;1.00
10417;DHT22;62605;49.432;8.680;2023-06-10T12:09:07;28.10;1.00
10417;DHT22;62605;49.432;8.680;2023-06-10T12:11:34;29.10;1.00
10417;DHT22;62605;49.432;8.680;2023-06-10T12:14:02;30.00;1.00
10417;DHT22;62605;49.432;8.680;2023-06-10T12:16:31;29.90;1.00
10417;DHT22;62605;49.432;8.680;2023-06-10T12:19:02;29.60;1.00
10417;DHT22;62605;49.432;8.680;2023-06-10T12:21:30;29.90;1.00
10417;DHT22;62605;49.432;8.680;2023-06-10T12:24:05;30.40;1.00
10417;DHT22;62605;49.432;8.680;2023-06-10T12:26:38;30.80;1.00
10417;DHT22;62605;49.432;8.680;2023-06-10T12:29:19;31.00;1.00
10417;DHT22;62605;49.432;8.680;2023-06-10T12:32:00;30.40;1.00
10417;DHT22;62605;49.432;8.680;2023-06-10T12:34:35;30.40;1.00
10417;DHT22;62605;49.432;8.680;2023-06-10T12:37:04;31.50;1.00
10417;DHT22;62605;49.432;8.680;2023-06-10T12:39:33;31.60;1.00
10417;DHT22;62605;49.432;8.680;2023-06-10T12:42:00;31.50;1.00
10417;DHT22;62605;49.432;8.680;2023-06-10T12:44:33;30.60;1.00
10417;DHT22;62605;49.432;8.680;2023-06-10T12:47:07;30.60;1.00
10417;DHT22;62605;49.432;8.680;2023-06-10T12:49:35;30.50;1.00
10417;DHT22;62605;49.432;8.680;2023-06-10T12:52:03;31.00;1.00
10417;DHT22;62605;49.432;8.680;2023-06-10T12:54:31;30.20;1.00
10417;DHT22;62605;49.432;8.680;2023-06-10T12:56:59;29.30;1.00
10417;DHT22;62605;49.432;8.680;2023-06-10T12:59:27;29.00;1.00
10417;DHT22;62605;49.432;8.680;2023-06-10T13:01:57;28.60;1.00
10417;DHT22;62605;49.432;8.680;2023-06-10T13:04:33;28.70;1.00
10417;DHT22;62605;49.432;8.680;2023-06-10T13:07:00;29.60;1.00
10417;DHT22;62605;49.432;8.680;2023-06-10T13:09:27;30.20;1.00
10417;DHT22;62605;49.432;8.680;2023-06-10T13:11:54;30.50;1.00
10417;DHT22;62605;49.432;8.680;2023-06-10T13:14:21;30.70;1.00
10417;DHT22;62605;49.432;8.680;2023-06-10T13:16:53;30.80;1.00
10417;DHT22;62605;49.432;8.680;2023-06-10T13:19:33;31.00;1.00
10417;DHT22;62605;49.432;8.680;2023-06-10T13:22:03;31.20;1.00
10417;DHT22;62605;49.432;8.680;2023-06-10T13:24:30;31.00;1.00
10417;DHT22;62605;49.432;8.680;2023-06-10T13:26:58;30.80;1.00
10417;DHT22;62605;49.432;8.680;2023-06-10T13:29:25;30.60;1.00
10417;DHT22;62605;49.432;8.680;2023-06-10T13:31:52;31.00;1.00
10417;DHT22;62605;49.432;8.680;2023-06-10T13:34:19;30.80;1.00
10417;DHT22;62605;49.432;8.680;2023-06-10T13:36:52;30.10;1.00
10417;DHT22;62605;49.432;8.680;2023-06-10T13:39:19;29.50;1.00
10417;DHT22;62605;49.432;8.680;2023-06-10T13:41:48;29.60;1.00
10417;DHT22;62605;49.432;8.680;2023-06-10T13:44:15;30.60;1.00
10417;DHT22;62605;49.432;8.680;2023-06-10T13:46:42;30.20;1.00
10417;DHT22;62605;49.432;8.680;2023-06-10T13:49:09;31.00;1.00
10417;DHT22;62605;49.432;8.680;2023-06-10T13:51:37;31.20;1.00
10417;DHT22;62605;49.432;8.680;2023-06-10T13:54:05;31.50;1.00
10417;DHT22;62605;49.432;8.680;2023-06-10T13:56:32;31.10;1.00
10417;DHT22;62605;49.432;8.680;2023-06-10T13:59:03;31.00;1.00
10417;DHT22;62605;49.432;8.680;2023-06-10T14:01:31;31.40;1.00
10417;DHT22;62605;49.432;8.680;2023-06-10T14:03:58;30.90;1.00
10417;DHT22;62605;49.432;8.680;2023-06-10T14:06:25;30.80;1.00
10417;DHT22;62605;49.432;8.680;2023-06-10T14:08:52;31.20;1.00
10417;DHT22;62605;49.432;8.680;2023-06-10T14:11:21;32.00;1.00
10417;DHT22;62605;49.432;8.680;2023-06-10T14:13:49;32.00;1.00
10417;DHT22;62605;49.432;8.680;2023-06-10T14:16:16;31.30;1.00
10417;DHT22;62605;49.432;8.680;2023-06-10T14:18:43;31.40;1.00
10417;DHT22;62605;49.432;8.680;2023-06-10T14:21:10;31.90;1.00
10417;DHT22;62605;49.432;8.680;2023-06-10T14:23:37;31.50;1.00
10417;DHT22;62605;49.432;8.680;2023-06-10T14:26:09;32.00;1.00
10417;DHT22;62605;49.432;8.680;2023-06-10T14:28:38;32.00;1.00
10417;DHT22;62605;49.432;8.680;2023-06-10T14:31:05;32.30;1.00
10417;DHT22;62605;49.432;8.680;2023-06-10T14:33:33;32.70;1.00
10417;DHT22;62605;49.432;8.680;2023-06-10T14:36:00;32.50;1.00
10417;DHT22;62605;49.432;8.680;2023-06-10T14:38:28;32.40;1.00
10417;DHT22;62605;49.432;8.680;2023-06-10T14:40:58;32.80;1.00
10417;DHT22;62605;49.432;8.680;2023-06-10T14:43:25;32.50;1.00
10417;DHT22;62605;49.432;8.680;2023-06-10T14:45:54;31.70;1.00
10417;DHT22;62605;49.432;8.680;2023-06-10T14:48:21;30.60;1.00
10417;DHT22;62605;49.432;8.680;2023-06-10T14:50:48;30.00;1.00
10417;DHT22;62605;49.432;8.680;2023-06-10T14:53:16;29.60;1.00
10417;DHT22;62605;49.432;8.680;2023-06-10T14:55:44;29.30;1.00
10417;DHT22;62605;49.432;8.680;2023-06-10T14:58:11;29.10;1.00
10417;DHT22;62605;49.432;8.680;2023-06-10T15:00:39;29.00;1.00
10417;DHT22;62605;49.432;8.680;2023-06-10T15:03:08;29.00;1.00
10417;DHT22;62605;49.432;8.680;2023-06-10T15:05:35;29.10;1.00
10417;DHT22;62605;49.432;8.680;2023-06-10T15:08:03;28.90;1.00
10417;DHT22;62605;49.432;8.680;2023-06-10T15:10:30;29.60;1.00
10417;DHT22;62605;49.432;8.680;2023-06-10T15:12:57;30.80;1.00
10417;DHT22;62605;49.432;8.680;2023-06-10T15:15:25;31.00;1.00
10417;DHT22;62605;49.432;8.680;2023-06-10T15:17:52;31.70;1.00
10417;DHT22;62605;49.432;8.680;2023-06-10T15:20:20;31.90;1.00
10417;DHT22;62605;49.432;8.680;2023-06-10T15:22:47;33.00;1.00
10417;DHT22;62605;49.432;8.680;2023-06-10T15:25:15;33.00;1.00
10417;DHT22;62605;49.432;8.680;2023-06-10T15:27:42;34.00;1.00
10417;DHT22;62605;49.432;8.680;2023-06-10T15:30:12;34.00;1.00
10417;DHT22;62605;49.432;8.680;2023-06-10T15:32:39;33.90;1.00
10417;DHT22;62605;49.432;8.680;2023-06-10T15:35:06;33.50;1.00
10417;DHT22;62605;49.432;8.680;2023-06-10T15:37:35;32.80;1.00
10417;DHT22;62605;49.432;8.680;2023-06-10T15:40:02;33.30;1.00
10417;DHT22;62605;49.432;8.680;2023-06-10T15:42:31;33.20;1.00
10417;DHT22;62605;49.432;8.680;2023-06-10T15:44:59;33.30;1.00
10417;DHT22;62605;49.432;8.680;2023-06-10T15:47:26;33.50;1.00
10417;DHT22;62605;49.432;8.680;2023-06-10T15:49:53;33.10;1.00
10417;DHT22;62605;49.432;8.680;2023-06-10T15:52:20;33.00;1.00
10417;DHT22;62605;49.432;8.680;2023-06-10T15:54:48;33.60;1.00
10417;DHT22;62605;49.432;8.680;2023-06-10T15:57:15;34.20;1.00